Time;durP1;ratioP1;P1;durP2;ratioP2;P2;SDS_P1;SDS_P2;PMS_P1;PMS_P2;Temp;Humidity;BMP_temperature;BMP_pressure;BME280_temperature;BME280_humidity;BME280_pressure;Samples;Min_cycle;Max_cycle;Signal;HPM_P1;HPM_P2
2022/06/08 00:00:38;;;;;;;2.00;1.80;;;;;;;15.20;100.00;96190.16;4991703;28;102181;-60
2022/06/08 00:03:09;;;;;;;3.13;2.03;;;;;;;15.23;100.00;96189.59;4990984;28;105739;-60
2022/06/08 00:05:36;;;;;;;1.83;1.70;;;;;;;15.22;100.00;96193.34;4991886;28;102610;-59
2022/06/08 00:08:03;;;;;;;1.97;1.70;;;;;;;15.16;100.00;96189.13;4992300;28;101850;-59
2022/06/08 00:10:31;;;;;;;2.00;1.80;;;;;;;15.12;100.00;96188.91;4991984;28;102558;-60
2022/06/08 00:12:58;;;;;;;2.40;2.20;;;;;;;15.11;100.00;96183.81;4991623;28;102685;-59
2022/06/08 00:15:30;;;;;;;2.00;1.90;;;;;;;15.14;100.00;96188.59;4992121;28;101868;-59
2022/06/08 00:17:59;;;;;;;2.33;2.10;;;;;;;15.15;100.00;96188.31;4992272;28;102598;-60
2022/06/08 00:20:26;;;;;;;1.90;1.80;;;;;;;15.17;100.00;96188.03;4994857;28;102531;-60
2022/06/08 00:22:54;;;;;;;1.97;1.87;;;;;;;15.16;100.00;96186.44;4992110;28;102541;-59
2022/06/08 00:25:29;;;;;;;1.80;1.70;;;;;;;15.20;100.00;96184.81;4991452;28;102796;-60
2022/06/08 00:27:57;;;;;;;2.13;1.80;;;;;;;15.19;100.00;96189.34;4990627;28;101841;-59
2022/06/08 00:30:25;;;;;;;1.83;1.73;;;;;;;15.19;100.00;96183.19;4990500;28;105824;-60
2022/06/08 00:32:52;;;;;;;1.70;1.60;;;;;;;15.11;100.00;96187.31;4989943;28;105585;-59
2022/06/08 00:35:23;;;;;;;2.03;1.80;;;;;;;15.13;100.00;96182.47;4991837;28;101802;-60
2022/06/08 00:37:51;;;;;;;1.80;1.70;;;;;;;15.10;100.00;96185.69;4990483;28;105092;-59
2022/06/08 00:40:22;;;;;;;2.10;2.00;;;;;;;15.16;100.00;96183.78;4991077;28;102629;-59
2022/06/08 00:42:51;;;;;;;1.90;1.80;;;;;;;15.15;100.00;96188.31;4993924;28;101828;-59
2022/06/08 00:45:22;;;;;;;1.73;1.63;;;;;;;15.12;100.00;96188.91;4989698;28;105307;-59
2022/06/08 00:47:54;;;;;;;2.17;1.97;;;;;;;15.08;100.00;96184.38;4991978;28;101900;-60
2022/06/08 00:50:26;;;;;;;3.03;2.10;;;;;;;15.12;100.00;96188.09;4991644;28;103000;-60
2022/06/08 00:52:54;;;;;;;1.97;1.70;;;;;;;15.12;100.00;96182.72;4989630;28;105751;-60
2022/06/08 00:55:33;;;;;;;2.07;1.90;;;;;;;15.07;100.00;96180.91;4990142;28;101831;-59
2022/06/08 00:58:05;;;;;;;2.33;2.13;;;;;;;15.07;100.00;96180.09;4990342;28;105121;-59
2022/06/08 01:00:34;;;;;;;2.57;2.40;;;;;;;15.07;100.00;96174.75;4990558;28;103145;-60
2022/06/08 01:03:02;;;;;;;2.40;2.20;;;;;;;15.06;100.00;96167.81;4990139;28;101935;-60
2022/06/08 01:05:46;;;;;;;2.73;2.30;;;;;;;15.01;100.00;96171.34;4992786;28;105245;-60
2022/06/08 01:08:22;;;;;;;2.40;2.20;;;;;;;14.99;100.00;96164.66;4991477;28;101672;-60
2022/06/08 01:10:55;;;;;;;3.17;2.33;;;;;;;14.93;100.00;96174.63;4990140;28;105731;-60
2022/06/08 01:13:23;;;;;;;2.13;2.03;;;;;;;14.91;100.00;96170.63;4989442;28;105628;-59
2022/06/08 01:15:51;;;;;;;2.67;2.47;;;;;;;14.88;100.00;96160.50;4989824;28;102093;-59
2022/06/08 01:18:22;;;;;;;2.30;2.20;;;;;;;14.88;100.00;96171.19;4989910;28;105248;-59
2022/06/08 01:20:54;;;;;;;2.23;2.13;;;;;;;14.86;100.00;96162.63;4989130;28;105610;-60
2022/06/08 01:23:27;;;;;;;2.37;2.07;;;;;;;14.83;100.00;96157.84;4988777;28;101816;-59
2022/06/08 01:26:19;;;;;;;2.10;2.00;;;;;;;14.84;100.00;96159.44;4989685;28;105142;-59
2022/06/08 01:28:53;;;;;;;2.10;2.00;;;;;;;14.81;100.00;96154.66;4992444;28;105109;-59
2022/06/08 01:31:31;;;;;;;2.07;1.90;;;;;;;14.74;100.00;96154.19;4989576;28;105931;-60
2022/06/08 01:34:09;;;;;;;1.90;1.80;;;;;;;14.69;100.00;96146.19;4990540;28;103133;-59
2022/06/08 01:37:03;;;;;;;2.07;1.67;;;;;;;14.62;100.00;96145.72;4989628;28;101887;-59
2022/06/08 01:39:44;;;;;;;2.17;1.93;;;;;;;14.64;100.00;96147.06;4989435;28;103766;-59
2022/06/08 01:42:21;;;;;;;4.23;1.90;;;;;;;14.55;100.00;96138.03;4990596;28;102741;-59
2022/06/08 01:45:33;;;;;;;2.57;1.67;;;;;;;14.47;100.00;96132.47;4989302;28;101841;-59
2022/06/08 01:48:33;;;;;;;1.80;1.70;;;;;;;14.45;100.00;96130.06;4989533;28;105496;-59
2022/06/08 01:51:15;;;;;;;2.57;1.83;;;;;;;14.50;100.00;96137.28;4992250;28;106730;-59
2022/06/08 01:53:53;;;;;;;2.33;1.63;;;;;;;14.48;100.00;96134.88;4989253;28;105601;-59
2022/06/08 01:56:32;;;;;;;1.67;1.57;;;;;;;14.45;100.00;96132.75;4988700;28;105530;-60
2022/06/08 01:59:17;;;;;;;3.03;1.70;;;;;;;14.42;100.00;96132.53;4989401;28;102075;-59
2022/06/08 02:01:51;;;;;;;1.90;1.63;;;;;;;14.43;100.00;96136.78;4988461;28;105358;-60
2022/06/08 02:04:25;;;;;;;3.07;1.70;;;;;;;14.43;100.00;96134.09;4988558;28;106220;-60
2022/06/08 02:07:01;;;;;;;4.10;2.20;;;;;;;14.40;100.00;96127.44;4989211;28;101789;-59
2022/06/08 02:09:35;;;;;;;3.33;2.03;;;;;;;14.41;100.00;96122.91;4989144;28;105100;-60
2022/06/08 02:12:06;;;;;;;3.50;1.70;;;;;;;14.39;100.00;96130.41;4988546;28;105039;-59
2022/06/08 02:15:20;;;;;;;1.97;1.80;;;;;;;14.32;100.00;96120.03;4993323;28;102054;-59
2022/06/08 02:17:55;;;;;;;3.90;2.17;;;;;;;14.32;100.00;96127.25;4988336;28;105858;-59
2022/06/08 02:20:35;;;;;;;2.77;1.60;;;;;;;14.36;100.00;96112.25;4989047;28;101828;-59
2022/06/08 02:23:09;;;;;;;2.63;1.80;;;;;;;14.33;100.00;96118.94;4989120;28;105448;-59
2022/06/08 02:25:43;;;;;;;1.40;1.40;;;;;;;14.35;100.00;96111.47;4988308;28;105172;-59
2022/06/08 02:28:18;;;;;;;3.00;1.50;;;;;;;14.28;100.00;96118.19;4988967;28;101808;-59
2022/06/08 02:30:53;;;;;;;1.53;1.43;;;;;;;14.30;100.00;96111.50;4989048;28;104931;-60
2022/06/08 02:36:17;;;;;;;4.37;2.10;;;;;;;14.33;100.00;96120.84;4992437;28;101781;-59
2022/06/08 02:38:51;;;;;;;4.67;2.07;;;;;;;14.35;100.00;96113.31;4995067;28;104805;-60
2022/06/08 02:41:22;;;;;;;2.20;1.70;;;;;;;14.29;100.00;96109.09;4992353;28;101909;-59
2022/06/08 02:43:58;;;;;;;2.20;1.50;;;;;;;14.38;100.00;96104.75;4992293;28;105234;-60
2022/06/08 02:46:36;;;;;;;1.50;1.40;;;;;;;14.19;100.00;96103.78;4991750;28;105213;-59
2022/06/08 02:49:13;;;;;;;1.70;1.33;;;;;;;14.24;100.00;96106.47;4992220;28;102163;-60
2022/06/08 02:51:44;;;;;;;2.10;1.37;;;;;;;14.15;100.00;96108.09;4993678;28;102362;-59
2022/06/08 02:54:16;;;;;;;1.67;1.30;;;;;;;14.15;100.00;96105.41;4991536;28;105337;-59
2022/06/08 02:56:53;;;;;;;2.60;1.30;;;;;;;14.06;100.00;96110.56;4992071;28;102090;-60
2022/06/08 02:59:27;;;;;;;1.73;1.30;;;;;;;14.08;100.00;96105.75;4992070;28;105302;-59
2022/06/08 03:02:01;;;;;;;1.80;1.20;;;;;;;14.03;100.00;96099.63;4994218;28;105904;-59
2022/06/08 03:05:02;;;;;;;1.33;1.17;;;;;;;14.02;100.00;96098.81;4992110;28;104972;-60
2022/06/08 03:07:39;;;;;;;1.47;1.10;;;;;;;13.93;100.00;96099.69;4991189;28;105887;-59
2022/06/08 03:10:11;;;;;;;1.00;1.00;;;;;;;13.86;100.00;96102.72;4991953;28;101937;-59
2022/06/08 03:12:40;;;;;;;2.57;1.10;;;;;;;13.88;100.00;96097.06;4993073;28;102430;-59
2022/06/08 03:15:15;;;;;;;1.10;1.10;;;;;;;13.83;100.00;96094.41;4992333;28;103158;-59
2022/06/08 03:17:50;;;;;;;1.97;1.10;;;;;;;13.86;100.00;96091.19;4991890;28;101856;-59
2022/06/08 03:20:21;;;;;;;1.23;1.10;;;;;;;13.88;100.00;96092.53;4993280;28;102520;-59
2022/06/08 03:22:49;;;;;;;1.03;1.03;;;;;;;13.86;100.00;96089.34;4992504;28;102726;-59
2022/06/08 03:25:18;;;;;;;1.13;0.83;;;;;;;13.85;100.00;96089.63;4995133;28;101914;-59
2022/06/08 03:27:48;;;;;;;1.30;1.20;;;;;;;13.85;100.00;96097.63;4974550;28;105507;-59
2022/06/08 03:30:18;;;;;;;0.90;0.90;;;;;;;13.82;100.00;96088.28;4991482;28;101866;-59
2022/06/08 03:32:46;;;;;;;0.97;0.97;;;;;;;13.81;100.00;96083.22;4991680;28;104866;-59
2022/06/08 03:35:20;;;;;;;1.53;1.43;;;;;;;13.82;100.00;96082.13;4990769;28;104731;-59
2022/06/08 03:37:49;;;;;;;1.60;1.10;;;;;;;13.79;100.00;96086.16;4991191;28;101835;-59
2022/06/08 03:40:18;;;;;;;1.03;1.03;;;;;;;13.71;100.00;96083.28;4991432;28;105071;-59
2022/06/08 03:42:45;;;;;;;1.63;1.33;;;;;;;13.61;100.00;96083.34;4990588;28;105453;-59
2022/06/08 03:45:32;;;;;;;1.03;1.00;;;;;;;13.61;100.00;96084.16;4990863;28;102081;-59
2022/06/08 03:47:59;;;;;;;1.20;1.20;;;;;;;13.64;100.00;96093.47;4994172;28;105290;-59
2022/06/08 03:50:30;;;;;;;2.17;1.10;;;;;;;13.70;100.00;96082.50;4990951;28;101885;-59
2022/06/08 03:53:03;;;;;;;1.00;1.00;;;;;;;13.69;100.00;96080.09;4991233;28;103687;-59
2022/06/08 03:55:34;;;;;;;1.67;1.10;;;;;;;13.57;100.00;96084.97;4990356;28;105839;-59
2022/06/08 03:58:02;;;;;;;1.20;1.10;;;;;;;13.55;100.00;96081.78;4991035;28;101945;-59
2022/06/08 04:00:36;;;;;;;1.73;1.13;;;;;;;13.57;100.00;96087.66;4990515;28;105131;-59
2022/06/08 04:03:10;;;;;;;1.37;1.27;;;;;;;13.62;100.00;96087.63;4990462;28;105264;-60
2022/06/08 04:06:27;;;;;;;1.10;1.10;;;;;;;13.70;100.00;96087.84;4990885;28;102096;-60
2022/06/08 04:08:55;;;;;;;1.40;1.30;;;;;;;13.76;100.00;96077.91;4993767;28;105335;-60
2022/06/08 04:11:24;;;;;;;1.37;0.90;;;;;;;13.86;100.00;96086.66;4990800;28;102574;-60
2022/06/08 04:13:52;;;;;;;1.00;1.00;;;;;;;13.85;100.00;96078.91;4990871;28;103435;-60
2022/06/08 04:17:02;;;;;;;1.63;1.20;;;;;;;13.81;100.00;96085.88;4990147;28;105451;-59
2022/06/08 04:19:33;;;;;;;1.10;1.10;;;;;;;13.78;100.00;96079.22;4990799;28;101899;-59
2022/06/08 04:22:00;;;;;;;1.37;1.27;;;;;;;13.69;100.00;96078.19;4990711;28;104873;-59
2022/06/08 04:24:39;;;;;;;1.03;1.03;;;;;;;13.78;100.00;96081.09;4990098;28;105850;-59
2022/06/08 04:27:07;;;;;;;1.50;1.37;;;;;;;13.85;100.00;96082.38;4990620;28;101817;-60
2022/06/08 04:29:41;;;;;;;1.27;1.27;;;;;;;13.91;100.00;96073.25;4990669;28;105248;-60
2022/06/08 04:32:10;;;;;;;1.50;1.40;;;;;;;13.93;100.00;96068.44;4994837;28;102638;-59
2022/06/08 04:35:11;;;;;;;1.20;0.90;;;;;;;14.04;100.00;96069.13;4990522;28;105087;-59
2022/06/08 04:37:39;;;;;;;1.10;1.10;;;;;;;14.13;100.00;96075.50;4991412;28;102659;-60
2022/06/08 04:40:12;;;;;;;1.53;1.00;;;;;;;14.20;100.00;96070.66;4990400;28;101693;-60
2022/06/08 04:42:40;;;;;;;1.63;1.30;;;;;;;14.29;100.00;96068.97;4990615;28;105253;-60
2022/06/08 04:45:09;;;;;;;3.33;1.50;;;;;;;14.37;100.00;96073.72;4989862;28;105962;-59
2022/06/08 04:47:39;;;;;;;1.03;1.00;;;;;;;14.47;100.00;96062.91;4990239;28;101896;-59
2022/06/08 04:50:09;;;;;;;2.53;1.20;;;;;;;14.58;100.00;96061.75;4990227;28;104819;-60
2022/06/08 04:52:38;;;;;;;1.27;1.20;;;;;;;14.66;100.00;96051.22;4989618;28;105013;-59
2022/06/08 04:55:16;;;;;;;1.37;1.10;;;;;;;14.65;100.00;96054.16;4993704;28;101834;-59
2022/06/08 04:57:46;;;;;;;1.10;0.83;;;;;;;14.71;100.00;96053.06;4989583;28;105095;-59
2022/06/08 05:00:18;;;;;;;1.63;1.20;;;;;;;14.85;100.00;96046.72;4989425;28;101998;-60
2022/06/08 05:02:47;;;;;;;2.30;1.20;;;;;;;14.86;100.00;96056.34;4989912;28;105574;-60
2022/06/08 05:05:25;;;;;;;0.90;0.90;;;;;;;14.91;100.00;96050.13;4989546;28;105295;-60
2022/06/08 05:07:55;;;;;;;1.07;1.00;;;;;;;14.98;100.00;96048.72;4990100;28;101974;-59
2022/06/08 05:10:26;;;;;;;1.33;1.07;;;;;;;15.16;100.00;96049.84;4990000;28;105715;-60
2022/06/08 05:12:54;;;;;;;0.80;0.80;;;;;;;15.27;100.00;96044.06;4989434;28;105444;-59
2022/06/08 05:15:50;;;;;;;0.70;0.70;;;;;;;15.29;100.00;96038.41;4990026;28;101902;-60
2022/06/08 05:18:31;;;;;;;1.20;1.03;;;;;;;15.42;100.00;96043.13;4992720;28;103381;-60
2022/06/08 05:21:02;;;;;;;0.70;0.70;;;;;;;15.27;100.00;96040.59;4990004;28;102035;-59
2022/06/08 05:23:36;;;;;;;1.63;0.70;;;;;;;15.30;100.00;96029.28;4989787;28;105420;-59
2022/06/08 05:26:25;;;;;;;0.70;0.70;;;;;;;15.44;100.00;96035.56;4989181;28;105607;-60
2022/06/08 05:28:52;;;;;;;0.73;0.73;;;;;;;15.68;100.00;96039.78;4989802;28;102016;-61
2022/06/08 05:31:20;;;;;;;1.13;0.90;;;;;;;15.77;100.00;96034.56;4989817;28;105239;-60
2022/06/08 05:33:52;;;;;;;2.00;0.73;;;;;;;15.79;100.00;96035.84;4990607;28;102638;-59
2022/06/08 05:36:21;;;;;;;1.73;0.90;;;;;;;15.84;100.00;96029.63;4989482;28;102304;-60
2022/06/08 05:38:54;;;;;;;2.47;0.80;;;;;;;15.91;100.00;96025.47;4989552;28;105248;-61
2022/06/08 05:41:27;;;;;;;3.70;0.90;;;;;;;16.11;100.00;96033.22;4992448;28;105799;-60
2022/06/08 05:43:55;;;;;;;0.80;0.80;;;;;;;16.04;100.00;96029.31;4989491;28;105575;-60
2022/06/08 05:46:58;;;;;;;1.43;0.90;;;;;;;16.35;100.00;96038.44;4988734;28;105371;-60
2022/06/08 05:49:28;;;;;;;0.90;0.90;;;;;;;16.61;100.00;96036.91;4989214;28;101868;-59
2022/06/08 05:51:58;;;;;;;1.70;1.60;;;;;;;16.65;100.00;96032.56;4989338;28;104858;-60
2022/06/08 05:54:43;;;;;;;2.00;1.80;;;;;;;16.85;100.00;96029.50;4988697;28;105432;-59
2022/06/08 05:57:11;;;;;;;1.00;1.00;;;;;;;17.06;100.00;96028.00;4989230;28;102013;-59
2022/06/08 05:59:42;;;;;;;1.27;1.00;;;;;;;17.18;100.00;96025.59;4989073;28;105222;-60
2022/06/08 06:02:15;;;;;;;2.60;1.00;;;;;;;17.22;100.00;96029.28;4988336;28;105892;-61
2022/06/08 06:04:43;;;;;;;0.80;0.80;;;;;;;17.38;100.00;96025.19;4992716;28;101913;-61
2022/06/08 06:07:11;;;;;;;1.10;1.00;;;;;;;17.41;100.00;96021.91;4988341;28;105412;-61
2022/06/08 06:09:43;;;;;;;1.27;1.00;;;;;;;17.44;100.00;96024.78;4988639;28;102324;-62
2022/06/08 06:12:12;;;;;;;1.27;1.17;;;;;;;17.62;100.00;96039.19;4989307;28;105250;-62
2022/06/08 06:14:45;;;;;;;1.37;0.70;;;;;;;17.82;100.00;96033.38;4988516;28;105366;-62
2022/06/08 06:17:12;;;;;;;1.03;0.70;;;;;;;17.85;100.00;96032.75;4988949;28;101853;-62
2022/06/08 06:20:07;;;;;;;1.03;0.67;;;;;;;18.09;100.00;96031.34;4989102;28;104969;-62
2022/06/08 06:22:52;;;;;;;1.90;0.80;;;;;;;18.15;100.00;96027.44;4988442;28;105772;-62
2022/06/08 06:25:48;;;;;;;1.90;0.70;;;;;;;18.37;100.00;96032.06;4993562;28;101952;-62
2022/06/08 06:28:51;;;;;;;1.50;0.73;;;;;;;18.55;100.00;96025.66;4977033;28;104139;-62
2022/06/08 06:31:37;;;;;;;0.60;0.60;;;;;;;18.40;100.00;96026.84;4988856;28;101809;-62
2022/06/08 06:34:11;;;;;;;0.73;0.60;;;;;;;18.73;100.00;96021.94;4988946;28;105346;-62
2022/06/08 06:36:40;;;;;;;0.70;0.70;;;;;;;18.85;100.00;96024.88;4988067;28;105009;-62
2022/06/08 06:39:07;;;;;;;1.97;0.77;;;;;;;18.73;100.00;96019.25;4990168;28;101998;-62
2022/06/08 06:41:40;;;;;;;0.80;0.80;;;;;;;18.51;100.00;96011.22;4988689;28;105263;-62
2022/06/08 06:44:08;;;;;;;0.63;0.60;;;;;;;18.66;100.00;96006.25;4988256;28;105844;-62
2022/06/08 06:47:04;;;;;;;0.70;0.70;;;;;;;18.57;100.00;96002.72;4982417;28;103054;-62
2022/06/08 06:49:46;;;;;;;1.90;0.90;;;;;;;18.65;100.00;96003.84;4991475;28;105477;-62
2022/06/08 06:52:17;;;;;;;0.80;0.80;;;;;;;18.46;100.00;96011.34;4988561;28;101908;-62
2022/06/08 06:55:03;;;;;;;1.17;0.80;;;;;;;18.89;100.00;96004.25;4988777;28;105279;-62
2022/06/08 06:57:32;;;;;;;1.43;0.80;;;;;;;18.86;100.00;96004.91;4988042;28;105411;-62
2022/06/08 07:00:00;;;;;;;1.37;0.80;;;;;;;18.84;100.00;95996.31;4987693;28;101924;-62
2022/06/08 07:02:28;;;;;;;1.63;0.80;;;;;;;18.99;100.00;95995.91;4988614;28;105084;-62
2022/06/08 07:04:55;;;;;;;1.93;0.80;;;;;;;18.76;100.00;95994.41;4987820;28;105685;-62
2022/06/08 07:07:22;;;;;;;0.80;0.80;;;;;;;18.75;100.00;95990.13;4988604;28;101940;-62
2022/06/08 07:09:49;;;;;;;1.17;0.70;;;;;;;19.23;100.00;95982.84;4988227;28;105557;-62
2022/06/08 07:12:17;;;;;;;0.60;0.60;;;;;;;19.44;100.00;95975.72;4992637;28;102546;-62
2022/06/08 07:14:54;;;;;;;0.70;0.70;;;;;;;19.32;100.00;95970.97;4989964;28;102861;-62
2022/06/08 07:17:21;;;;;;;1.83;0.80;;;;;;;19.59;100.00;95970.69;4987609;28;105114;-62
2022/06/08 07:19:48;;;;;;;0.70;0.70;;;;;;;19.22;100.00;95970.44;4988136;28;101968;-62
2022/06/08 07:22:17;;;;;;;2.00;0.60;;;;;;;19.35;100.00;95964.16;4990675;28;104764;-62
2022/06/08 07:25:05;;;;;;;1.10;0.80;;;;;;;19.53;100.00;95965.75;4992327;28;102872;-62
2022/06/08 07:27:32;;;;;;;1.30;0.70;;;;;;;19.04;100.00;95958.84;4993197;28;101739;-62
2022/06/08 07:30:01;;;;;;;2.07;0.70;;;;;;;18.71;100.00;95952.25;4993013;28;102289;-62
2022/06/08 07:32:28;;;;;;;2.10;0.60;;;;;;;19.07;100.00;95947.41;4992168;28;102569;-62
2022/06/08 07:35:12;;;;;;;1.23;0.70;;;;;;;18.98;100.00;95943.13;4996259;28;101836;-62
2022/06/08 07:37:39;;;;;;;0.77;0.70;;;;;;;18.95;100.00;95946.41;4992161;28;102645;-62
2022/06/08 07:40:07;;;;;;;1.53;0.80;;;;;;;19.36;100.00;95949.56;4991569;28;102019;-62
2022/06/08 07:42:36;;;;;;;1.37;0.57;;;;;;;19.73;100.00;95946.22;4992726;28;102370;-62
2022/06/08 07:45:11;;;;;;;1.23;0.80;;;;;;;20.14;100.00;95933.00;4991938;28;102572;-62
2022/06/08 07:49:36;;;;;;;1.80;0.70;;;;;;;20.49;100.00;95932.59;4991238;28;102005;-62
2022/06/08 07:50:35;;;;;;;1.40;0.70;;;;;;;20.74;100.00;95933.59;4992255;28;102984;-62
2022/06/08 07:53:03;;;;;;;1.40;1.03;;;;;;;20.88;100.00;95937.66;4991930;28;102750;-62
2022/06/08 07:55:48;;;;;;;1.40;0.70;;;;;;;20.44;100.00;95934.69;4992555;28;102229;-62
2022/06/08 07:58:15;;;;;;;1.33;0.70;;;;;;;20.52;100.00;95936.56;4993928;28;105612;-61
2022/06/08 08:00:47;;;;;;;0.87;0.80;;;;;;;20.83;100.00;95931.66;4990544;28;102134;-62
2022/06/08 08:03:14;;;;;;;1.63;0.77;;;;;;;20.64;100.00;95923.16;4992695;28;102371;-62
2022/06/08 08:05:41;;;;;;;1.67;0.77;;;;;;;21.16;100.00;95919.09;4991731;28;102606;-62
2022/06/08 08:08:09;;;;;;;0.50;0.50;;;;;;;21.56;100.00;95914.81;4990934;28;101896;-62
2022/06/08 08:10:36;;;;;;;0.90;0.80;;;;;;;21.06;100.00;95916.75;4992452;28;102911;-62
2022/06/08 08:13:04;;;;;;;0.87;0.80;;;;;;;21.18;100.00;95917.66;4990097;28;105406;-62
2022/06/08 08:15:31;;;;;;;1.40;0.70;;;;;;;21.23;100.00;95916.66;4992324;28;101817;-62
2022/06/08 08:18:09;;;;;;;1.27;0.80;;;;;;;20.75;100.00;95913.56;4991917;28;102521;-62
2022/06/08 08:20:38;;;;;;;0.60;0.60;;;;;;;20.78;100.00;95915.63;4994869;28;101761;-62
2022/06/08 08:23:06;;;;;;;1.07;0.90;;;;;;;21.07;100.00;95902.94;4992102;28;102884;-62
2022/06/08 08:25:43;;;;;;;1.30;0.77;;;;;;;21.47;100.00;95909.47;4991448;28;102500;-62
2022/06/08 08:28:11;;;;;;;1.07;0.80;;;;;;;21.78;100.00;95912.59;4990778;28;101937;-62
2022/06/08 08:30:38;;;;;;;1.27;0.80;;;;;;;22.24;100.00;95897.94;4991956;28;102854;-62
2022/06/08 08:33:06;;;;;;;0.80;0.80;;;;;;;22.44;100.00;95891.69;4990846;28;102911;-62
2022/06/08 08:35:42;;;;;;;0.70;0.67;;;;;;;22.41;100.00;95882.31;4992023;28;101871;-62
2022/06/08 08:38:09;;;;;;;0.60;0.50;;;;;;;22.27;100.00;95889.94;4991966;28;102324;-62
2022/06/08 08:40:44;;;;;;;0.77;0.77;;;;;;;22.69;100.00;95888.66;4993284;28;105868;-62
2022/06/08 08:43:15;;;;;;;2.27;0.73;;;;;;;22.93;100.00;95893.28;4991907;28;102373;-62
2022/06/08 08:45:51;;;;;;;0.60;0.60;;;;;;;23.04;100.00;95886.28;4991363;28;103121;-62
2022/06/08 08:48:28;;;;;;;0.63;0.63;;;;;;;22.71;100.00;95886.41;4991948;28;101823;-62
2022/06/08 08:51:13;;;;;;;2.10;0.70;;;;;;;22.33;100.00;95876.97;4990223;28;105583;-62
2022/06/08 08:53:51;;;;;;;1.00;0.70;;;;;;;22.56;100.00;95878.94;4991175;28;102605;-62
2022/06/08 08:56:29;;;;;;;1.40;0.70;;;;;;;21.83;100.00;95879.91;4990174;28;101864;-62
2022/06/08 08:58:56;;;;;;;0.93;0.80;;;;;;;22.05;100.00;95878.72;4991751;28;102499;-62
2022/06/08 09:01:27;;;;;;;0.77;0.73;;;;;;;21.55;100.00;95875.34;4990426;28;102610;-62
2022/06/08 09:03:57;;;;;;;0.60;0.60;;;;;;;22.31;100.00;95876.50;4995210;28;101694;-62
2022/06/08 09:06:43;;;;;;;1.57;0.80;;;;;;;22.53;100.00;95874.22;4990617;28;104342;-62
2022/06/08 09:09:15;;;;;;;2.53;0.80;;;;;;;22.11;100.00;95863.81;4989989;28;101921;-62
2022/06/08 09:11:44;;;;;;;1.67;0.83;;;;;;;22.28;100.00;95852.81;4991552;28;102391;-62
2022/06/08 09:14:16;;;;;;;0.97;0.90;;;;;;;21.68;100.00;95863.50;4989292;28;105795;-62
2022/06/08 09:16:46;;;;;;;2.17;0.80;;;;;;;21.78;100.00;95861.16;4991482;28;101804;-62
2022/06/08 09:19:33;;;;;;;0.83;0.80;;;;;;;21.74;100.00;95857.53;4989920;28;105282;-62
2022/06/08 09:24:58;;;;;;;1.93;0.77;;;;;;;21.60;100.00;95850.78;5092286;27;101522;-62
2022/06/08 09:27:29;;;;;;;1.73;0.80;;;;;;;21.82;100.00;95851.25;5069390;27;103819;-62
2022/06/08 09:30:10;;;;;;;1.00;0.70;;;;;;;22.22;100.00;95846.00;5070237;27;101823;-62
2022/06/08 09:32:44;;;;;;;1.23;0.90;;;;;;;22.24;100.00;95844.56;5088816;27;102300;-62
2022/06/08 09:35:26;;;;;;;1.53;0.57;;;;;;;21.85;100.00;95841.66;5087999;27;102582;-62
2022/06/08 09:37:55;;;;;;;1.57;0.70;;;;;;;21.71;100.00;95841.16;5088589;27;101701;-62
2022/06/08 09:40:38;;;;;;;1.00;0.70;;;;;;;21.53;100.00;95845.13;5069923;27;105156;-62
2022/06/08 09:43:38;;;;;;;0.90;0.90;;;;;;;22.03;100.00;95838.44;5087791;27;102642;-62
2022/06/08 09:46:10;;;;;;;1.57;0.87;;;;;;;22.26;100.00;95836.09;5091849;27;101822;-62
2022/06/08 09:52:20;;;;;;;2.47;0.87;;;;;;;22.37;100.00;95823.69;5069571;27;101849;-62
2022/06/08 09:55:08;;;;;;;2.23;0.93;;;;;;;23.04;100.00;95829.31;5088379;27;102476;-62
2022/06/08 10:00:40;;;;;;;1.07;0.70;;;;;;;23.34;100.00;95822.47;5051186;27;101535;-62
2022/06/08 10:03:36;;;;;;;0.70;0.70;;;;;;;23.60;100.00;95814.69;5047109;27;102809;-62
2022/06/08 10:06:31;;;;;;;0.63;0.63;;;;;;;23.88;100.00;95810.03;4964898;28;102006;-62
2022/06/08 10:09:08;;;;;;;0.50;0.50;;;;;;;23.90;100.00;95810.47;4965308;28;102520;-62
2022/06/08 10:11:43;;;;;;;2.03;0.80;;;;;;;23.08;89.34;95809.31;4947829;28;105698;-62
2022/06/08 10:14:19;;;;;;;1.20;0.63;;;;;;;23.59;100.00;95802.25;4948936;28;101761;-62
2022/06/08 10:16:52;;;;;;;1.33;0.80;;;;;;;23.85;98.81;95799.84;4965336;28;102278;-62
2022/06/08 10:19:29;;;;;;;2.27;0.70;;;;;;;24.18;100.00;95789.47;4947961;28;105783;-62
2022/06/08 10:21:58;;;;;;;1.03;0.70;;;;;;;24.81;88.93;95778.22;4951895;28;102042;-62
2022/06/08 10:25:07;;;;;;;2.00;0.60;;;;;;;25.05;78.35;95783.41;4964454;28;103319;-62
2022/06/08 10:27:39;;;;;;;1.57;0.80;;;;;;;24.90;84.12;95775.28;4965198;28;101846;-62
2022/06/08 10:30:16;;;;;;;1.53;0.80;;;;;;;24.82;90.17;95768.91;4948395;28;105180;-62
2022/06/08 10:32:53;;;;;;;1.30;0.73;;;;;;;24.86;99.54;95774.41;4947998;28;105685;-62
2022/06/08 10:35:55;;;;;;;1.73;0.70;;;;;;;24.77;96.98;95763.75;4948458;28;102068;-62
2022/06/08 10:38:26;;;;;;;1.70;0.80;;;;;;;25.36;89.67;95760.72;4947908;28;105591;-62
2022/06/08 10:40:55;;;;;;;1.10;0.70;;;;;;;25.18;79.30;95754.13;4947629;28;107051;-62
2022/06/08 10:43:27;;;;;;;0.70;0.70;;;;;;;25.22;76.45;95747.59;5004498;27;102011;-62
2022/06/08 10:46:32;;;;;;;1.23;0.63;;;;;;;25.53;57.46;95739.31;5049945;27;101804;-62
2022/06/08 10:49:04;;;;;;;0.77;0.60;;;;;;;25.65;68.31;95738.34;5046983;27;101674;-62
2022/06/08 10:51:39;;;;;;;2.23;0.47;;;;;;;25.82;68.91;95730.47;5046843;27;102332;-62
2022/06/08 10:54:54;;;;;;;0.60;0.50;;;;;;;25.94;60.75;95727.59;5044849;27;104091;-62
2022/06/08 10:57:41;;;;;;;0.50;0.40;;;;;;;25.96;59.33;95722.59;5045203;27;101992;-62
2022/06/08 11:00:52;;;;;;;0.97;0.60;;;;;;;26.09;62.16;95720.44;5046349;27;102343;-62
2022/06/08 11:03:54;;;;;;;2.13;0.60;;;;;;;26.38;64.13;95714.31;5037387;27;105471;-62
2022/06/08 11:09:54;;;;;;;1.07;0.63;;;;;;;26.44;61.73;95718.28;5043347;27;105096;-62
2022/06/08 11:12:35;;;;;;;0.63;0.60;;;;;;;26.81;65.42;95716.53;5034382;28;105350;-62
2022/06/08 11:15:36;;;;;;;1.27;0.50;;;;;;;26.98;64.94;95711.28;5033079;28;102360;-62
2022/06/08 11:18:14;;;;;;;0.70;0.70;;;;;;;26.59;80.78;95703.75;5032456;28;102639;-62
2022/06/08 11:20:47;;;;;;;2.90;0.73;;;;;;;25.58;83.21;95691.91;5032648;28;101783;-62
2022/06/08 11:23:21;;;;;;;0.63;0.40;;;;;;;26.38;80.10;95698.72;5031472;28;105298;-62
2022/06/08 11:26:28;;;;;;;0.90;0.50;;;;;;;26.49;72.33;95682.53;5030581;28;105959;-62
2022/06/08 11:29:00;;;;;;;0.70;0.67;;;;;;;26.87;66.42;95695.94;5032844;28;101904;-62
2022/06/08 11:31:50;;;;;;;2.57;0.73;;;;;;;26.84;71.83;95683.03;5032788;28;102603;-62
2022/06/08 11:34:37;;;;;;;3.03;0.70;;;;;;;26.51;78.87;95677.47;5030552;28;105527;-62
2022/06/08 11:37:16;;;;;;;1.03;0.70;;;;;;;26.25;80.04;95663.84;5034814;28;101838;-62
2022/06/08 11:39:52;;;;;;;1.30;0.67;;;;;;;26.75;75.14;95663.44;5030421;28;105550;-62
2022/06/08 11:42:25;;;;;;;0.40;0.40;;;;;;;27.01;79.55;95663.34;5032716;27;101744;-62
2022/06/08 11:45:14;;;;;;;0.87;0.60;;;;;;;27.37;79.07;95651.72;5031096;28;105174;-62
2022/06/08 11:47:49;;;;;;;1.73;0.53;;;;;;;27.43;65.53;95645.53;5031901;28;102516;-62
2022/06/08 11:50:21;;;;;;;1.00;0.53;;;;;;;27.60;57.90;95642.19;5032450;27;101760;-62
2022/06/08 11:52:59;;;;;;;0.77;0.60;;;;;;;27.57;56.35;95642.16;5030959;28;105422;-62
2022/06/08 11:55:27;;;;;;;1.20;0.60;;;;;;;27.75;64.94;95635.69;5031744;27;103073;-62
2022/06/08 11:58:00;;;;;;;0.97;0.60;;;;;;;27.61;62.07;95635.56;5030975;28;101931;-62
2022/06/08 12:00:31;;;;;;;0.93;0.50;;;;;;;27.61;57.71;95638.28;5034894;28;104801;-62
2022/06/08 12:03:02;;;;;;;0.60;0.60;;;;;;;27.71;58.81;95625.88;5032374;28;101683;-62
2022/06/08 12:05:33;;;;;;;0.60;0.60;;;;;;;27.34;63.89;95623.19;5032425;28;102899;-62
2022/06/08 12:08:13;;;;;;;1.07;0.40;;;;;;;27.54;61.60;95624.56;5029901;28;103669;-62
2022/06/08 12:10:41;;;;;;;0.93;0.70;;;;;;;27.95;57.62;95625.34;5030755;28;101860;-62
2022/06/08 12:13:19;;;;;;;0.50;0.50;;;;;;;27.69;53.61;95620.78;5030679;28;105578;-62